Lambourn, United Kingdom
Current Conditions -  °F | °C
As of 1:33 AM on Saturday 20 Dec 2014 (Local Time) from EGVA Reporting Station
Broken Clouds Broken Clouds  
Wind Chill:   Ceiling: 3800
Heat Index:   Visibility: 6mi
Dew Point:   Wind: 16mph
Humidity: 81%   Direction: 260°W
Pressure: 30.19"   Gusts: NA
Location:  51.51°N, 1.53°W
Report Text: EGVA 200133Z AUTO 26014KT 9999 BKN038 06/03 A3019 RMK AO2
Loading
Personal Weather Stations






























Interactive Weather Map New forecast layout! Learn more

10-Day Weather Forecast

Advertisements
Track Severe Weather on mobile